Time;durP1;ratioP1;P1;durP2;ratioP2;P2;SDS_P1;SDS_P2;PMS_P1;PMS_P2;Temp;Humidity;BMP_temperature;BMP_pressure;BME280_temperature;BME280_humidity;BME280_pressure;Samples;Min_cycle;Max_cycle;Signal;HPM_P1;HPM_P2
2023/01/20 00:01:11;;;;;;;54.70;22.60;;;4.30;99.90;;;;;;4996234;28;20026;-83
2023/01/20 00:03:41;;;;;;;53.72;21.48;;;4.30;99.90;;;;;;4996906;28;20049;-84
2023/01/20 00:06:08;;;;;;;53.53;22.30;;;4.40;99.90;;;;;;4995599;28;20360;-83
2023/01/20 00:08:34;;;;;;;55.17;21.60;;;4.40;99.90;;;;;;4997696;28;20475;-84
2023/01/20 00:11:08;;;;;;;67.43;23.88;;;4.30;99.90;;;;;;4998797;28;20038;-85
2023/01/20 00:13:36;;;;;;;48.47;20.98;;;4.40;99.90;;;;;;4997282;28;20046;-84
2023/01/20 00:16:06;;;;;;;;;;;4.20;99.90;;;;;;4996728;28;20042;-83
2023/01/20 00:18:33;;;;;;;45.35;20.00;;;4.30;99.90;;;;;;4996929;28;19909;-85
2023/01/20 00:21:07;;;;;;;60.00;22.40;;;4.30;99.90;;;;;;4998019;28;20156;-84
2023/01/20 00:23:33;;;;;;;51.00;21.83;;;4.30;99.90;;;;;;4999345;28;20486;-84
2023/01/20 00:26:04;;;;;;;49.25;21.60;;;4.30;99.90;;;;;;4999525;28;20107;-82
2023/01/20 00:28:30;;;;;;;54.45;22.02;;;4.40;99.90;;;;;;5000132;28;20065;-84
2023/01/20 00:30:56;;;;;;;51.90;21.92;;;4.30;99.90;;;;;;4999238;28;20039;-84
2023/01/20 00:33:21;;;;;;;50.38;21.15;;;4.30;99.90;;;;;;4998264;28;20049;-86
2023/01/20 00:35:53;;;;;;;54.33;21.08;;;4.20;99.90;;;;;;4999748;28;20034;-86
2023/01/20 00:38:19;;;;;;;49.53;20.02;;;4.20;99.90;;;;;;4998857;28;20150;-86
2023/01/20 00:40:53;;;;;;;44.85;19.33;;;4.20;99.90;;;;;;4998741;28;20034;-84
2023/01/20 00:43:19;;;;;;;50.63;21.02;;;4.20;99.90;;;;;;5000312;28;20093;-86
2023/01/20 00:45:45;;;;;;;48.95;20.13;;;4.30;99.90;;;;;;5000209;28;20449;-84
2023/01/20 00:48:10;;;;;;;42.88;17.88;;;4.20;99.90;;;;;;4999874;28;20046;-83
2023/01/20 00:50:36;;;;;;;44.83;18.75;;;4.30;99.90;;;;;;4994848;28;20041;-84
2023/01/20 00:53:03;;;;;;;54.90;19.95;;;4.20;99.90;;;;;;4995402;28;20034;-83
2023/01/20 00:55:29;;;;;;;46.10;19.20;;;4.30;99.90;;;;;;4994213;28;20042;-84
2023/01/20 00:57:54;;;;;;;47.25;20.00;;;4.30;99.90;;;;;;4995155;28;20061;-85
2023/01/20 01:00:20;;;;;;;41.78;18.33;;;4.30;99.90;;;;;;4993950;28;20030;-84
2023/01/20 01:02:46;;;;;;;44.05;18.92;;;4.20;99.90;;;;;;4995557;28;20018;-84
2023/01/20 01:05:11;;;;;;;47.50;19.48;;;4.20;99.90;;;;;;4994044;28;20041;-86
2023/01/20 01:07:37;;;;;;;49.13;20.35;;;4.20;99.90;;;;;;4994885;28;20376;-84
2023/01/20 01:10:03;;;;;;;43.13;18.77;;;4.20;99.90;;;;;;4994745;28;20037;-85
2023/01/20 01:12:29;;;;;;;48.53;20.48;;;4.20;99.90;;;;;;4993836;28;20361;-84
2023/01/20 01:14:55;;;;;;;46.25;19.30;;;4.20;99.90;;;;;;4993658;28;20072;-84
2023/01/20 01:17:22;;;;;;;48.88;20.23;;;4.10;99.90;;;;;;4994056;28;20027;-84
2023/01/20 01:19:51;;;;;;;47.67;18.52;;;4.10;99.90;;;;;;4995122;28;20030;-84
2023/01/20 01:22:16;;;;;;;44.83;20.02;;;4.10;99.90;;;;;;4994908;28;20027;-84
2023/01/20 01:24:43;;;;;;;47.97;19.38;;;4.10;99.90;;;;;;4995037;28;20333;-85
2023/01/20 01:27:09;;;;;;;48.13;20.90;;;3.90;99.90;;;;;;4993047;28;20072;-86
2023/01/20 01:29:35;;;;;;;52.15;20.40;;;3.90;99.90;;;;;;4993780;28;20373;-86
2023/01/20 01:32:01;;;;;;;42.10;19.17;;;4.00;99.90;;;;;;4993457;28;20096;-86
2023/01/20 01:34:29;;;;;;;48.22;18.52;;;4.10;99.90;;;;;;4994765;28;20065;-87
2023/01/20 01:36:55;;;;;;;43.30;17.70;;;4.00;99.90;;;;;;4995915;28;20121;-88
2023/01/20 01:39:21;;;;;;;45.67;18.15;;;3.90;99.90;;;;;;4996433;28;20023;-86
2023/01/20 01:41:48;;;;;;;44.70;19.08;;;3.90;99.90;;;;;;4997013;28;20042;-87
2023/01/20 01:44:14;;;;;;;43.60;18.88;;;3.90;99.90;;;;;;5003672;28;20022;-84
2023/01/20 01:46:41;;;;;;;48.28;19.13;;;3.90;99.90;;;;;;5006765;28;20057;-84
2023/01/20 01:49:27;;;;;;;41.25;17.98;;;3.90;99.90;;;;;;5009811;28;20090;-84
2023/01/20 01:52:07;;;;;;;56.72;19.70;;;4.00;99.90;;;;;;5002682;28;20023;-83
2023/01/20 01:54:37;;;;;;;39.13;17.98;;;3.90;99.90;;;;;;4995064;28;20043;-82
2023/01/20 01:57:06;;;;;;;43.67;20.02;;;3.90;99.90;;;;;;4998191;28;20033;-85
2023/01/20 01:59:32;;;;;;;42.47;18.08;;;3.90;99.90;;;;;;4998200;28;20417;-84
2023/01/20 02:01:58;;;;;;;46.72;19.25;;;3.90;99.90;;;;;;4998942;28;20038;-86
2023/01/20 02:04:26;;;;;;;42.80;18.45;;;3.90;99.90;;;;;;4996021;28;20026;-82
2023/01/20 02:07:07;;;;;;;43.03;18.48;;;4.00;99.90;;;;;;4994976;28;20030;-84
2023/01/20 02:09:33;;;;;;;44.28;18.23;;;3.90;99.90;;;;;;4996296;28;20109;-85
2023/01/20 02:12:05;;;;;;;42.05;19.20;;;3.90;99.90;;;;;;5001339;28;20023;-84
2023/01/20 02:14:40;;;;;;;41.50;18.23;;;3.90;99.90;;;;;;4995041;28;20078;-85
2023/01/20 02:17:21;;;;;;;40.67;17.95;;;3.90;99.90;;;;;;4997591;28;20034;-85
2023/01/20 02:20:13;;;;;;;43.25;18.45;;;3.80;99.90;;;;;;4997028;28;20027;-84
2023/01/20 02:23:02;;;;;;;46.55;18.75;;;3.70;99.90;;;;;;4993448;28;20058;-84
2023/01/20 02:25:49;;;;;;;44.67;18.48;;;3.80;99.90;;;;;;4991487;28;20118;-83
2023/01/20 02:28:53;;;;;;;39.97;17.50;;;3.80;99.90;;;;;;4992696;28;20479;-86
2023/01/20 02:31:56;;;;;;;45.15;17.45;;;3.70;99.90;;;;;;4991435;28;20030;-86
2023/01/20 02:35:05;;;;;;;38.83;17.55;;;3.60;99.90;;;;;;4991455;28;20038;-85
2023/01/20 02:37:45;;;;;;;42.33;18.85;;;3.70;99.90;;;;;;5002403;28;20048;-88
2023/01/20 02:40:51;;;;;;;40.05;18.33;;;3.70;99.90;;;;;;5012661;28;20035;-89
2023/01/20 02:43:24;;;;;;;44.45;17.23;;;3.70;99.90;;;;;;4990839;28;20026;-87
2023/01/20 02:46:07;;;;;;;42.33;18.00;;;3.70;99.90;;;;;;5012530;28;20428;-87
2023/01/20 02:49:00;;;;;;;40.58;18.33;;;3.70;99.90;;;;;;5012801;28;20037;-87
2023/01/20 02:51:34;;;;;;;42.25;18.48;;;3.70;99.90;;;;;;5012368;28;20036;-85
2023/01/20 02:54:10;;;;;;;39.30;18.70;;;3.70;99.90;;;;;;5012711;28;20193;-86
2023/01/20 02:56:37;;;;;;;48.22;20.02;;;3.70;99.90;;;;;;5011348;28;20449;-86
2023/01/20 02:59:14;;;;;;;47.08;19.33;;;3.60;99.90;;;;;;5012309;28;20026;-83
2023/01/20 03:02:07;;;;;;;41.93;18.43;;;3.60;99.90;;;;;;5011523;28;20037;-85
2023/01/20 03:04:39;;;;;;;43.10;18.08;;;3.60;99.90;;;;;;5011586;28;20033;-85
2023/01/20 03:07:06;;;;;;;42.30;18.48;;;3.60;99.90;;;;;;5012383;28;20080;-85
2023/01/20 03:09:39;;;;;;;37.63;17.63;;;3.60;99.90;;;;;;5012092;28;20032;-85
2023/01/20 03:12:17;;;;;;;47.95;19.02;;;3.60;99.90;;;;;;5012056;28;20025;-84
2023/01/20 03:14:46;;;;;;;44.50;18.83;;;3.60;99.90;;;;;;5012293;28;20032;-84
2023/01/20 03:17:11;;;;;;;46.47;18.27;;;3.60;99.90;;;;;;5011038;28;20030;-85
2023/01/20 03:19:37;;;;;;;50.08;20.70;;;3.50;99.90;;;;;;5010839;28;20044;-84
2023/01/20 03:22:06;;;;;;;46.40;18.58;;;3.50;99.90;;;;;;5010764;28;20448;-85
2023/01/20 03:24:34;;;;;;;50.25;18.23;;;3.60;99.90;;;;;;5010680;28;20025;-84
2023/01/20 03:26:59;;;;;;;;;;;3.60;99.90;;;;;;5012627;28;20133;-86
2023/01/20 03:29:25;;;;;;;45.17;19.52;;;3.60;99.90;;;;;;5011667;28;19958;-84
2023/01/20 03:31:56;;;;;;;45.72;18.92;;;3.60;99.90;;;;;;5011586;28;20114;-83
2023/01/20 03:34:25;;;;;;;50.03;18.45;;;3.60;99.90;;;;;;5011764;28;20042;-84
2023/01/20 03:36:52;;;;;;;40.72;17.63;;;3.40;99.90;;;;;;5011634;28;20053;-85
2023/01/20 03:39:19;;;;;;;45.42;19.02;;;3.30;99.90;;;;;;5011014;28;20120;-85
2023/01/20 03:42:06;;;;;;;43.33;19.60;;;3.30;99.90;;;;;;5012671;28;20025;-86
2023/01/20 03:44:49;;;;;;;43.20;18.23;;;3.30;99.90;;;;;;5011841;28;20053;-85
2023/01/20 03:47:47;;;;;;;46.17;17.27;;;3.20;99.90;;;;;;5010290;28;20443;-85
2023/01/20 03:50:38;;;;;;;38.45;16.75;;;3.30;99.90;;;;;;5010570;28;20050;-84
2023/01/20 03:53:12;;;;;;;39.35;17.83;;;3.30;99.90;;;;;;5012020;28;20352;-85
2023/01/20 03:55:42;;;;;;;45.97;17.08;;;3.30;99.90;;;;;;5010831;28;20157;-85
2023/01/20 03:58:15;;;;;;;37.45;16.48;;;3.30;99.90;;;;;;5010929;28;20033;-85
2023/01/20 04:00:45;;;;;;;47.45;18.02;;;3.20;99.90;;;;;;5011390;28;20026;-84
2023/01/20 04:03:18;;;;;;;39.25;16.17;;;3.10;99.90;;;;;;5011452;28;20118;-85
2023/01/20 04:05:45;;;;;;;42.67;17.10;;;3.10;99.90;;;;;;5010956;28;20111;-85
2023/01/20 04:08:13;;;;;;;40.90;17.60;;;3.10;99.90;;;;;;5010742;28;20061;-86
2023/01/20 04:10:42;;;;;;;43.28;17.05;;;2.90;99.90;;;;;;5011432;28;20034;-85
2023/01/20 04:13:08;;;;;;;41.35;17.55;;;2.90;99.90;;;;;;5013146;28;20092;-86
2023/01/20 04:15:43;;;;;;;48.08;17.45;;;2.90;99.90;;;;;;5011997;28;20038;-86
2023/01/20 04:18:13;;;;;;;47.97;17.98;;;2.90;99.90;;;;;;5012135;28;20029;-85
2023/01/20 04:20:40;;;;;;;45.63;19.33;;;2.90;99.90;;;;;;5010809;28;20114;-83
2023/01/20 04:23:07;;;;;;;47.22;18.95;;;3.00;99.90;;;;;;5011731;28;20030;-85
2023/01/20 04:25:33;;;;;;;41.72;18.13;;;2.90;99.90;;;;;;5010942;28;20073;-83
2023/01/20 04:27:59;;;;;;;54.35;19.13;;;2.90;99.90;;;;;;5009575;28;20404;-82
2023/01/20 04:30:25;;;;;;;47.28;18.33;;;2.80;99.90;;;;;;5011768;28;20056;-85
2023/01/20 04:32:50;;;;;;;43.30;18.35;;;2.80;99.90;;;;;;5014942;28;20364;-83
2023/01/20 04:35:19;;;;;;;46.13;18.50;;;2.80;99.90;;;;;;5014332;28;20053;-84
2023/01/20 04:37:45;;;;;;;43.38;16.60;;;2.80;99.90;;;;;;5013752;28;20044;-82
2023/01/20 04:40:11;;;;;;;45.30;18.63;;;2.80;99.90;;;;;;5013835;28;20113;-83
2023/01/20 04:42:37;;;;;;;45.22;18.30;;;2.80;99.90;;;;;;5016222;28;20502;-86
2023/01/20 04:45:03;;;;;;;45.35;17.77;;;2.80;99.90;;;;;;5018713;28;20289;-86
2023/01/20 04:47:30;;;;;;;48.40;19.00;;;2.80;99.90;;;;;;5020068;28;20033;-86
2023/01/20 04:49:56;;;;;;;48.20;18.03;;;2.80;99.90;;;;;;5016428;28;20041;-85
2023/01/20 04:52:24;;;;;;;45.08;18.02;;;2.80;99.90;;;;;;5015452;28;20068;-86
2023/01/20 04:54:49;;;;;;;;;;;2.80;99.90;;;;;;5015612;28;20376;-87
2023/01/20 04:57:15;;;;;;;45.75;18.30;;;2.80;99.90;;;;;;5014470;28;19905;-89
2023/01/20 04:59:41;;;;;;;43.38;17.52;;;2.80;99.90;;;;;;5015268;28;20030;-85
2023/01/20 05:02:07;;;;;;;44.60;17.80;;;2.80;99.90;;;;;;5014376;28;20038;-83
2023/01/20 05:04:33;;;;;;;53.60;18.65;;;2.80;99.90;;;;;;5014396;28;20125;-84
2023/01/20 05:06:58;;;;;;;46.10;19.27;;;2.90;99.90;;;;;;5014728;28;20363;-83
2023/01/20 05:09:24;;;;;;;44.63;18.60;;;2.90;99.90;;;;;;5014309;28;20038;-85
2023/01/20 05:11:50;;;;;;;47.90;18.98;;;2.80;99.90;;;;;;5015475;28;20356;-83
2023/01/20 05:14:15;;;;;;;40.38;17.13;;;2.80;99.90;;;;;;5015955;28;20072;-85
2023/01/20 05:16:41;;;;;;;46.05;17.73;;;2.90;99.90;;;;;;5014968;28;20379;-84
2023/01/20 05:19:07;;;;;;;47.15;18.10;;;3.00;99.90;;;;;;5013613;28;20037;-84
2023/01/20 05:21:33;;;;;;;44.25;18.52;;;3.00;99.90;;;;;;5013723;28;20037;-87
2023/01/20 05:23:58;;;;;;;39.25;17.27;;;3.00;99.90;;;;;;5015301;28;20101;-86
2023/01/20 05:26:25;;;;;;;45.97;17.58;;;3.00;99.90;;;;;;5014201;28;20376;-85
2023/01/20 05:28:51;;;;;;;42.50;18.50;;;3.00;99.90;;;;;;5014603;28;20083;-85
2023/01/20 05:31:17;;;;;;;41.13;17.85;;;2.90;99.90;;;;;;5013546;28;20464;-86
2023/01/20 05:33:43;;;;;;;46.92;19.27;;;2.80;99.90;;;;;;5014627;28;20176;-86
2023/01/20 05:36:10;;;;;;;47.10;17.90;;;2.70;99.90;;;;;;5014261;28;20176;-86
2023/01/20 05:38:36;;;;;;;41.58;17.35;;;2.60;99.90;;;;;;5015220;28;20092;-86
2023/01/20 05:41:03;;;;;;;40.05;17.63;;;2.60;99.90;;;;;;5013965;28;20403;-86
2023/01/20 05:43:29;;;;;;;40.42;17.30;;;2.60;99.90;;;;;;5014677;28;20127;-88
2023/01/20 05:45:55;;;;;;;44.70;17.77;;;2.50;99.90;;;;;;5015054;28;20026;-86
2023/01/20 05:48:21;;;;;;;44.28;17.20;;;2.50;99.90;;;;;;5014519;28;20509;-85
2023/01/20 05:50:47;;;;;;;47.28;18.58;;;2.50;99.90;;;;;;5011469;28;20026;-85
2023/01/20 05:53:13;;;;;;;39.85;16.77;;;2.40;99.90;;;;;;4994391;28;20062;-85
2023/01/20 05:55:38;;;;;;;41.80;18.10;;;2.50;99.90;;;;;;4993803;28;20441;-84
2023/01/20 05:58:04;;;;;;;43.08;17.83;;;2.60;99.90;;;;;;4994219;28;20053;-85
2023/01/20 06:00:30;;;;;;;41.70;17.30;;;2.70;99.90;;;;;;4994510;28;20026;-84
2023/01/20 06:02:56;;;;;;;40.70;17.23;;;2.70;99.90;;;;;;4993371;28;20080;-86
2023/01/20 06:05:22;;;;;;;39.13;17.02;;;2.80;99.90;;;;;;4993774;28;20038;-84
2023/01/20 06:07:48;;;;;;;45.97;16.98;;;2.70;99.90;;;;;;4994271;28;20047;-86
2023/01/20 06:10:15;;;;;;;42.10;17.17;;;2.70;99.90;;;;;;4994336;28;20475;-86
2023/01/20 06:12:40;;;;;;;39.47;16.90;;;2.70;99.90;;;;;;4996380;28;20035;-87
2023/01/20 06:15:07;;;;;;;38.80;17.48;;;2.60;99.90;;;;;;4997830;28;20130;-85
2023/01/20 06:17:32;;;;;;;38.72;17.00;;;2.60;99.90;;;;;;4995023;28;20027;-86
2023/01/20 06:19:59;;;;;;;36.78;16.75;;;2.60;99.90;;;;;;4993477;28;20048;-86
2023/01/20 06:22:25;;;;;;;39.63;16.95;;;2.60;99.90;;;;;;4992479;28;20632;-84
2023/01/20 06:24:51;;;;;;;42.35;17.85;;;2.60;99.90;;;;;;4993172;28;20523;-84
2023/01/20 06:27:17;;;;;;;41.05;18.88;;;2.70;99.90;;;;;;4992885;28;20050;-84
2023/01/20 06:29:42;;;;;;;48.72;18.80;;;2.70;99.90;;;;;;4993852;28;20054;-86
2023/01/20 06:32:08;;;;;;;47.22;18.92;;;2.80;99.90;;;;;;4993239;28;20428;-85
2023/01/20 06:34:35;;;;;;;50.13;20.38;;;2.90;99.90;;;;;;4992441;28;20030;-80
2023/01/20 06:37:01;;;;;;;42.70;17.98;;;2.90;99.90;;;;;;4990052;28;20061;-78
2023/01/20 06:39:27;;;;;;;44.05;19.08;;;2.90;99.90;;;;;;4976222;28;20111;-81
2023/01/20 06:41:56;;;;;;;45.13;19.13;;;3.00;99.90;;;;;;4992278;28;20018;-81
2023/01/20 06:44:21;;;;;;;46.47;18.77;;;3.00;99.90;;;;;;4992434;28;20516;-76
2023/01/20 06:46:47;;;;;;;46.88;18.90;;;3.10;99.90;;;;;;4991630;28;20118;-79
2023/01/20 06:49:12;;;;;;;49.67;19.98;;;3.10;99.90;;;;;;4991244;28;20333;-82
2023/01/20 06:51:38;;;;;;;48.50;20.38;;;3.20;99.90;;;;;;4991179;28;20041;-85
2023/01/20 06:54:04;;;;;;;47.80;19.10;;;3.20;99.90;;;;;;4991122;28;20053;-83
2023/01/20 06:56:29;;;;;;;50.63;18.10;;;3.30;99.90;;;;;;4993033;28;20429;-85
2023/01/20 06:58:55;;;;;;;45.38;19.02;;;3.40;99.90;;;;;;4992416;28;20038;-83
2023/01/20 07:01:24;;;;;;;45.47;18.90;;;3.40;99.90;;;;;;4992425;28;20027;-84
2023/01/20 07:03:50;;;;;;;44.47;19.58;;;3.50;99.90;;;;;;4991908;28;20042;-84
2023/01/20 07:06:34;;;;;;;37.58;18.98;;;3.40;99.90;;;;;;4992226;28;20361;-84
2023/01/20 07:09:00;;;;;;;43.42;19.75;;;3.50;99.90;;;;;;4991108;28;20041;-83
2023/01/20 07:11:27;;;;;;;50.63;19.88;;;3.50;99.90;;;;;;4991426;28;20238;-84
2023/01/20 07:13:53;;;;;;;42.70;17.77;;;3.50;99.90;;;;;;4991440;28;20071;-85
2023/01/20 07:16:19;;;;;;;39.78;18.50;;;3.50;99.90;;;;;;4992460;28;20330;-85
2023/01/20 07:18:49;;;;;;;44.15;18.85;;;3.40;99.90;;;;;;4992359;28;20050;-84
2023/01/20 07:21:14;;;;;;;51.17;19.15;;;3.40;99.90;;;;;;4991837;28;20038;-83
2023/01/20 07:23:40;;;;;;;49.20;18.83;;;3.40;99.90;;;;;;4992536;28;20034;-83
2023/01/20 07:26:08;;;;;;;41.97;17.33;;;3.50;99.90;;;;;;4997066;28;20385;-83
2023/01/20 07:28:35;;;;;;;59.78;23.13;;;3.40;99.90;;;;;;4993753;28;20038;-84
2023/01/20 07:31:04;;;;;;;47.42;18.80;;;3.40;99.90;;;;;;4991157;28;20031;-89
2023/01/20 07:33:31;;;;;;;43.20;17.40;;;3.40;99.90;;;;;;4990502;28;20365;-96
2023/01/20 07:35:57;;;;;;;51.55;19.60;;;3.50;99.90;;;;;;5002713;28;20515;-87
2023/01/20 07:38:23;;;;;;;45.20;20.00;;;3.60;99.90;;;;;;5010403;28;20451;-80
2023/01/20 07:40:49;;;;;;;42.30;18.55;;;3.60;99.90;;;;;;5009787;28;20092;-80
2023/01/20 07:43:15;;;;;;;43.38;18.95;;;3.60;99.90;;;;;;5009856;28;20049;-82
2023/01/20 07:45:41;;;;;;;44.95;17.17;;;3.50;99.90;;;;;;5010363;28;20033;-78
2023/01/20 07:48:06;;;;;;;49.83;18.42;;;3.50;99.90;;;;;;5009963;28;20029;-80
2023/01/20 07:50:35;;;;;;;48.03;18.50;;;3.50;99.90;;;;;;5010395;28;20014;-81
2023/01/20 07:53:01;;;;;;;40.25;17.25;;;3.50;99.90;;;;;;5009800;28;20058;-82
2023/01/20 07:55:27;;;;;;;43.17;18.35;;;3.50;99.90;;;;;;5011113;28;20534;-83
2023/01/20 07:57:53;;;;;;;45.33;18.60;;;3.40;99.90;;;;;;5011573;28;20030;-84
2023/01/20 08:00:19;;;;;;;37.50;16.52;;;3.30;99.90;;;;;;5009980;28;20084;-83
2023/01/20 08:02:44;;;;;;;42.22;17.65;;;3.40;99.90;;;;;;5011192;28;20033;-79
2023/01/20 08:05:11;;;;;;;40.60;16.80;;;3.30;99.90;;;;;;5011749;28;20061;-83
2023/01/20 08:07:36;;;;;;;41.80;18.15;;;3.20;99.90;;;;;;5013759;28;20408;-81
2023/01/20 08:10:02;;;;;;;47.22;16.45;;;3.20;99.90;;;;;;5014407;28;20030;-78
2023/01/20 08:12:28;;;;;;;45.00;17.38;;;3.20;99.90;;;;;;5014635;28;20476;-78
2023/01/20 08:14:54;;;;;;;39.28;16.98;;;3.10;99.90;;;;;;5014719;28;20357;-81
2023/01/20 08:17:20;;;;;;;43.95;18.65;;;3.20;99.90;;;;;;5013590;28;20030;-84
2023/01/20 08:19:46;;;;;;;41.58;17.67;;;3.10;99.90;;;;;;5003289;28;20437;-82
2023/01/20 08:22:12;;;;;;;48.97;19.65;;;3.20;99.90;;;;;;4994259;28;20027;-78
2023/01/20 08:24:37;;;;;;;42.72;19.00;;;3.20;99.90;;;;;;4995079;28;20080;-79
2023/01/20 08:27:03;;;;;;;40.85;18.92;;;3.20;99.90;;;;;;4994570;28;20065;-81
2023/01/20 08:29:30;;;;;;;48.72;21.20;;;3.20;99.90;;;;;;4994193;28;20341;-81
2023/01/20 08:31:59;;;;;;;45.50;18.67;;;3.10;99.90;;;;;;4994644;28;20047;-79
2023/01/20 08:34:27;;;;;;;48.40;19.35;;;3.10;99.90;;;;;;4994423;28;20049;-82
2023/01/20 08:36:56;;;;;;;44.60;20.02;;;3.20;99.90;;;;;;4994471;28;20048;-80
2023/01/20 08:39:22;;;;;;;52.63;20.88;;;3.30;99.90;;;;;;4994351;28;20471;-80
2023/01/20 08:41:48;;;;;;;44.70;19.08;;;3.40;99.90;;;;;;4994065;28;20030;-81
2023/01/20 08:44:16;;;;;;;44.88;18.98;;;3.30;99.90;;;;;;4994634;28;20038;-80
2023/01/20 08:46:43;;;;;;;44.95;21.00;;;3.40;99.90;;;;;;4995018;28;20065;-81
2023/01/20 08:49:12;;;;;;;46.03;19.90;;;3.70;99.90;;;;;;4994963;28;20026;-78
2023/01/20 08:51:38;;;;;;;53.40;21.65;;;3.90;99.90;;;;;;4994151;28;20468;-84
2023/01/20 08:54:04;;;;;;;44.63;19.08;;;4.10;99.90;;;;;;4994993;28;20404;-79
2023/01/20 08:56:29;;;;;;;48.45;21.40;;;4.10;99.90;;;;;;4996153;28;20030;-79
2023/01/20 08:58:56;;;;;;;46.03;19.67;;;4.20;99.90;;;;;;4995102;28;20120;-84
2023/01/20 09:01:26;;;;;;;47.80;21.08;;;4.20;99.90;;;;;;4996986;28;20030;-82
2023/01/20 09:03:53;;;;;;;50.33;20.38;;;4.30;99.90;;;;;;4998797;28;20030;-78
2023/01/20 09:06:20;;;;;;;47.20;21.42;;;4.40;99.90;;;;;;4999426;28;20373;-84
2023/01/20 09:08:46;;;;;;;48.10;20.05;;;4.50;99.90;;;;;;4999929;28;20041;-81
2023/01/20 09:11:23;;;;;;;47.22;20.38;;;4.60;99.90;;;;;;5000398;28;20031;-81
2023/01/20 09:13:49;;;;;;;46.53;21.25;;;4.70;99.90;;;;;;4999583;28;20062;-82
2023/01/20 09:16:16;;;;;;;50.83;21.38;;;4.80;99.90;;;;;;4999346;28;20042;-82
2023/01/20 09:18:43;;;;;;;51.08;21.35;;;4.80;99.90;;;;;;5001064;28;20053;-79
2023/01/20 09:21:09;;;;;;;48.33;21.35;;;4.90;99.90;;;;;;4996632;28;20030;-81
2023/01/20 09:23:37;;;;;;;46.65;21.63;;;4.90;99.90;;;;;;5001567;28;20021;-80
2023/01/20 09:26:04;;;;;;;41.20;19.67;;;4.90;99.90;;;;;;4998408;28;20069;-77
2023/01/20 09:28:31;;;;;;;41.95;18.58;;;5.00;99.90;;;;;;4998586;28;20026;-80
2023/01/20 09:31:03;;;;;;;56.03;20.27;;;5.10;99.70;;;;;;5001035;28;20042;-79
2023/01/20 09:33:29;;;;;;;37.95;17.90;;;5.10;99.90;;;;;;5006385;28;20041;-79
2023/01/20 09:35:56;;;;;;;44.10;19.20;;;5.10;99.40;;;;;;5007727;28;20031;-77
2023/01/20 09:44:20;;;;;;;43.95;19.45;;;5.20;99.10;;;;;;5001796;28;20041;-81
2023/01/20 09:55:38;;;;;;;47.38;19.23;;;5.50;98.90;;;;;;4994843;28;20353;-80
2023/01/20 09:58:43;;;;;;;39.15;18.05;;;5.50;98.60;;;;;;4993456;28;20026;-79
2023/01/20 10:01:23;;;;;;;44.33;17.92;;;5.50;98.70;;;;;;4992624;28;20035;-82
2023/01/20 10:03:58;;;;;;;37.85;17.15;;;5.60;99.10;;;;;;4993264;28;20042;-81
2023/01/20 10:06:47;;;;;;;39.67;18.05;;;5.60;98.40;;;;;;4993389;28;20045;-79
2023/01/20 10:09:36;;;;;;;36.85;17.73;;;5.70;98.50;;;;;;4992840;28;20022;-81
2023/01/20 10:12:25;;;;;;;40.78;17.42;;;5.60;98.00;;;;;;4992638;28;20026;-77
2023/01/20 10:15:08;;;;;;;42.15;18.25;;;5.60;98.00;;;;;;4992824;28;20038;-79
2023/01/20 10:17:36;;;;;;;37.33;17.15;;;5.70;98.00;;;;;;4992545;28;20087;-82
2023/01/20 10:20:23;;;;;;;34.17;17.10;;;5.70;98.10;;;;;;4991451;28;20026;-76
2023/01/20 10:23:04;;;;;;;39.58;17.75;;;5.70;98.00;;;;;;4993241;28;20071;-82
2023/01/20 10:25:45;;;;;;;38.50;17.83;;;5.70;97.80;;;;;;4990807;28;20503;-80
2023/01/20 10:28:14;;;;;;;43.50;17.95;;;5.70;97.90;;;;;;4989748;28;20030;-78
2023/01/20 10:30:40;;;;;;;49.35;21.13;;;5.70;97.70;;;;;;4990861;28;20448;-82
2023/01/20 10:33:11;;;;;;;35.60;16.23;;;5.80;97.90;;;;;;4991121;28;20084;-82
2023/01/20 10:35:45;;;;;;;35.20;16.67;;;5.50;97.10;;;;;;4992885;28;20026;-79
2023/01/20 10:38:37;;;;;;;34.72;15.25;;;5.60;97.60;;;;;;4992025;28;20138;-81
2023/01/20 10:41:59;;;;;;;38.30;16.35;;;5.80;97.50;;;;;;4990918;28;20034;-80
2023/01/20 10:44:25;;;;;;;39.33;16.83;;;5.90;97.60;;;;;;4969843;28;20066;-83
2023/01/20 10:47:10;;;;;;;34.83;16.52;;;5.90;97.40;;;;;;5005117;28;20054;-85
2023/01/20 10:49:39;;;;;;;32.67;16.30;;;6.10;97.60;;;;;;4992628;28;20056;-82
2023/01/20 10:52:40;;;;;;;32.60;15.75;;;6.20;97.40;;;;;;4992578;28;20056;-85
2023/01/20 10:55:28;;;;;;;40.47;16.58;;;6.20;97.00;;;;;;4973798;28;20465;-83
2023/01/20 10:58:04;;;;;;;35.40;17.08;;;6.40;97.00;;;;;;4988705;28;20030;-84
2023/01/20 11:00:31;;;;;;;38.17;17.25;;;6.50;96.80;;;;;;4992187;28;20042;-83
2023/01/20 11:02:59;;;;;;;38.07;16.70;;;6.50;96.60;;;;;;4991429;28;20453;-84
2023/01/20 11:05:28;;;;;;;34.55;16.67;;;6.50;96.60;;;;;;4990924;28;20038;-85
2023/01/20 11:07:57;;;;;;;39.15;17.15;;;6.60;96.80;;;;;;4991305;28;20026;-84
2023/01/20 11:10:28;;;;;;;33.95;16.02;;;6.70;96.90;;;;;;4991669;28;20125;-84
2023/01/20 11:12:58;;;;;;;39.13;16.00;;;6.70;96.30;;;;;;4992181;28;20031;-84
2023/01/20 11:15:32;;;;;;;38.40;17.20;;;6.80;96.70;;;;;;4991907;28;20046;-84
2023/01/20 11:18:12;;;;;;;42.08;17.73;;;6.90;96.40;;;;;;4992472;28;20468;-84
2023/01/20 11:20:45;;;;;;;37.97;17.13;;;6.90;96.20;;;;;;4991997;28;20487;-83
2023/01/20 11:23:35;;;;;;;33.78;17.27;;;7.20;96.20;;;;;;4991100;28;20411;-82
2023/01/20 11:26:22;;;;;;;34.05;16.77;;;8.10;95.80;;;;;;4984335;28;20046;-82
2023/01/20 11:28:54;;;;;;;32.17;15.30;;;9.00;95.30;;;;;;4990163;28;20082;-82
2023/01/20 11:31:32;;;;;;;30.98;13.88;;;9.90;94.60;;;;;;4991247;28;20515;-82
2023/01/20 11:34:24;;;;;;;33.08;15.73;;;10.10;91.80;;;;;;4991366;28;20479;-82
2023/01/20 11:37:10;;;;;;;26.15;13.70;;;10.10;91.90;;;;;;4991373;28;20336;-82
2023/01/20 11:39:43;;;;;;;26.13;13.48;;;10.50;91.90;;;;;;4992164;28;20121;-81
2023/01/20 11:42:16;;;;;;;26.17;13.30;;;10.70;90.70;;;;;;4998378;28;20531;-83
2023/01/20 11:44:51;;;;;;;48.28;24.38;;;10.90;89.90;;;;;;4997586;28;20356;-84
2023/01/20 11:47:23;;;;;;;35.38;18.33;;;10.60;89.10;;;;;;4998905;28;20026;-84
2023/01/20 11:50:06;;;;;;;29.50;14.15;;;10.30;89.30;;;;;;4997487;28;20281;-83
2023/01/20 11:52:33;;;;;;;23.38;12.55;;;10.00;90.30;;;;;;4996680;28;20026;-83
2023/01/20 11:55:13;;;;;;;29.25;14.20;;;9.80;90.40;;;;;;4997951;28;20030;-82
2023/01/20 11:57:56;;;;;;;22.13;11.52;;;9.50;90.90;;;;;;4997901;28;20026;-79
2023/01/20 12:00:40;;;;;;;25.85;12.57;;;9.20;91.30;;;;;;4996832;28;20037;-82
2023/01/20 12:03:30;;;;;;;28.38;13.60;;;8.80;90.60;;;;;;4996801;28;20022;-79
2023/01/20 12:06:02;;;;;;;32.17;14.60;;;8.80;91.20;;;;;;4998103;28;20031;-77
2023/01/20 12:08:36;;;;;;;25.17;11.73;;;8.80;91.70;;;;;;4997573;28;20034;-77
2023/01/20 12:11:07;;;;;;;24.10;11.90;;;8.50;91.00;;;;;;4997580;28;20640;-77
2023/01/20 12:16:39;;;;;;;25.02;12.10;;;8.30;91.20;;;;;;4997991;28;20044;-81
2023/01/20 12:19:14;;;;;;;31.73;13.77;;;8.10;91.70;;;;;;4996794;28;20451;-83
2023/01/20 12:21:48;;;;;;;28.45;13.32;;;8.20;92.10;;;;;;4997826;28;20046;-84
2023/01/20 12:24:21;;;;;;;31.13;15.20;;;7.90;92.30;;;;;;4997775;28;20030;-84
2023/01/20 12:26:48;;;;;;;34.95;13.77;;;7.70;92.60;;;;;;4998298;28;20046;-82
2023/01/20 12:29:43;;;;;;;25.70;12.50;;;7.90;92.70;;;;;;4996499;28;20389;-81
2023/01/20 12:32:10;;;;;;;31.02;13.68;;;7.70;92.90;;;;;;4997781;28;20468;-83
2023/01/20 12:34:37;;;;;;;30.13;14.07;;;7.70;92.70;;;;;;4997521;28;20031;-80
2023/01/20 12:37:18;;;;;;;26.40;13.23;;;7.60;92.70;;;;;;4996766;28;20473;-82
2023/01/20 12:39:59;;;;;;;25.17;12.43;;;7.60;92.90;;;;;;4998326;28;20495;-87
2023/01/20 12:42:46;;;;;;;24.70;11.95;;;7.70;93.00;;;;;;4997748;28;20476;-83
2023/01/20 12:45:44;;;;;;;25.50;12.52;;;7.60;92.80;;;;;;4997537;28;20421;-83
2023/01/20 12:48:45;;;;;;;25.30;12.40;;;7.60;92.90;;;;;;4997804;28;20022;-83
2023/01/20 12:51:43;;;;;;;24.30;12.23;;;7.60;93.20;;;;;;4957958;28;20123;-85
2023/01/20 12:54:53;;;;;;;27.15;13.38;;;7.50;93.00;;;;;;4993391;28;20022;-84
2023/01/20 12:57:24;;;;;;;30.65;14.25;;;7.50;92.90;;;;;;4956545;28;20370;-82
2023/01/20 13:00:22;;;;;;;27.10;14.30;;;7.50;93.10;;;;;;4990620;28;20130;-80
2023/01/20 13:03:14;;;;;;;;;;;7.60;93.30;;;;;;4993834;28;20034;-78
2023/01/20 13:06:29;;;;;;;24.35;12.82;;;7.60;93.00;;;;;;4994535;28;20287;-82
2023/01/20 13:09:22;;;;;;;32.42;13.40;;;7.50;93.10;;;;;;4978650;28;20101;-79
2023/01/20 13:12:09;;;;;;;24.02;11.20;;;7.40;93.00;;;;;;4993945;28;20034;-87
2023/01/20 13:14:43;;;;;;;24.58;11.95;;;7.30;92.90;;;;;;4993955;28;20039;-84
2023/01/20 13:17:24;;;;;;;23.65;11.70;;;7.20;93.30;;;;;;4995462;28;20507;-84
2023/01/20 13:19:55;;;;;;;28.50;11.82;;;7.20;93.40;;;;;;4994148;28;20449;-82